Time;durP1;ratioP1;P1;durP2;ratioP2;P2;SDS_P1;SDS_P2;PMS_P1;PMS_P2;Temp;Humidity;BMP_temperature;BMP_pressure;BME280_temperature;BME280_humidity;BME280_pressure;Samples;Min_cycle;Max_cycle;Signal;HPM_P1;HPM_P2
2022/07/17 00:01:37;;;;;;;2.80;1.70;;;15.20;99.90;;;;;;4945342;28;20235;-67
2022/07/17 00:04:04;;;;;;;2.37;1.60;;;15.10;99.90;;;;;;4949282;28;20230;-66
2022/07/17 00:06:30;;;;;;;3.37;1.70;;;15.00;99.90;;;;;;4950618;28;20208;-66
2022/07/17 00:08:57;;;;;;;2.90;1.70;;;15.00;99.90;;;;;;4944177;28;20197;-66
2022/07/17 00:11:25;;;;;;;2.40;1.70;;;14.90;99.90;;;;;;4941763;28;20848;-66
2022/07/17 00:13:53;;;;;;;5.03;2.53;;;14.90;99.90;;;;;;4948946;28;20257;-66
2022/07/17 00:16:21;;;;;;;2.87;1.83;;;14.80;99.90;;;;;;4947856;28;20205;-66
2022/07/17 00:18:48;;;;;;;3.17;1.77;;;14.80;99.90;;;;;;4949548;28;20201;-66
2022/07/17 00:21:15;;;;;;;2.27;1.70;;;14.80;99.90;;;;;;4950647;28;20557;-66
2022/07/17 00:23:42;;;;;;;3.23;1.93;;;14.70;99.90;;;;;;4947959;28;20226;-66
2022/07/17 00:26:09;;;;;;;4.57;1.90;;;14.70;99.90;;;;;;4941668;28;20207;-66
2022/07/17 00:28:36;;;;;;;3.90;1.90;;;14.80;99.90;;;;;;4945412;29;20646;-66
2022/07/17 00:31:03;;;;;;;3.50;1.80;;;14.80;99.90;;;;;;4948256;28;20217;-66
2022/07/17 00:33:29;;;;;;;5.57;1.67;;;15.00;99.90;;;;;;4948553;29;20209;-66
2022/07/17 00:35:56;;;;;;;2.83;1.73;;;15.00;99.90;;;;;;4943313;28;20214;-66
2022/07/17 00:38:23;;;;;;;3.43;1.93;;;14.90;99.90;;;;;;4949528;28;20672;-67
2022/07/17 00:40:52;;;;;;;4.10;2.10;;;14.90;99.90;;;;;;4948893;28;20225;-66
2022/07/17 00:43:19;;;;;;;3.37;1.70;;;14.90;99.90;;;;;;4945920;28;20212;-66
2022/07/17 00:45:45;;;;;;;5.90;1.70;;;14.80;99.90;;;;;;4941636;29;20202;-69
2022/07/17 00:48:12;;;;;;;5.47;1.97;;;14.70;99.90;;;;;;4948269;28;20205;-69
2022/07/17 00:50:41;;;;;;;4.43;1.97;;;14.70;99.90;;;;;;4946447;28;20230;-68
2022/07/17 00:53:10;;;;;;;4.17;1.57;;;14.70;99.90;;;;;;4944770;28;20238;-69
2022/07/17 00:55:39;;;;;;;2.27;1.50;;;14.70;99.90;;;;;;4949847;29;20235;-69
2022/07/17 00:58:12;;;;;;;1.90;1.37;;;14.70;99.90;;;;;;4944834;28;20203;-69
2022/07/17 01:00:38;;;;;;;2.30;1.73;;;14.60;99.90;;;;;;4944821;28;20233;-70
2022/07/17 01:03:08;;;;;;;2.83;1.90;;;14.50;99.90;;;;;;4940795;28;20203;-68
2022/07/17 01:05:36;;;;;;;4.60;2.10;;;14.60;99.90;;;;;;4947601;28;20199;-71
2022/07/17 01:08:03;;;;;;;2.23;1.93;;;14.70;99.90;;;;;;4950104;29;20615;-68
2022/07/17 01:10:29;;;;;;;4.17;1.90;;;14.60;99.90;;;;;;4946476;28;20224;-68
2022/07/17 01:12:56;;;;;;;3.17;1.70;;;14.60;99.90;;;;;;4941337;29;20734;-68
2022/07/17 01:15:23;;;;;;;2.27;1.60;;;14.50;99.90;;;;;;4949872;28;20598;-71
2022/07/17 01:17:50;;;;;;;3.33;1.80;;;14.50;99.90;;;;;;4947829;28;20291;-68
2022/07/17 01:20:17;;;;;;;4.77;2.03;;;14.40;99.90;;;;;;4944832;29;20231;-69
2022/07/17 01:22:46;;;;;;;2.73;1.50;;;14.50;99.90;;;;;;4947414;28;20208;-71
2022/07/17 01:25:15;;;;;;;2.67;1.80;;;14.50;99.90;;;;;;4946773;28;20511;-68
2022/07/17 01:27:42;;;;;;;2.00;1.30;;;14.50;99.90;;;;;;4947597;28;20215;-70
2022/07/17 01:30:10;;;;;;;2.60;1.70;;;14.50;99.90;;;;;;4949508;28;20283;-69
2022/07/17 01:32:39;;;;;;;2.73;1.57;;;14.70;99.90;;;;;;4942294;29;20228;-69
2022/07/17 01:35:08;;;;;;;2.70;1.50;;;14.90;99.90;;;;;;4943710;28;20199;-69
2022/07/17 01:37:38;;;;;;;3.97;1.73;;;15.00;99.90;;;;;;4929724;29;20288;-69
2022/07/17 01:40:07;;;;;;;5.70;1.70;;;15.00;99.90;;;;;;4945000;29;20245;-71
2022/07/17 01:42:33;;;;;;;2.17;1.57;;;14.90;99.90;;;;;;4940999;28;20215;-69
2022/07/17 01:45:00;;;;;;;4.03;1.83;;;14.90;99.90;;;;;;4945741;28;20223;-70
2022/07/17 01:47:27;;;;;;;2.43;1.53;;;14.80;99.90;;;;;;4945974;28;20207;-68
2022/07/17 01:49:56;;;;;;;2.83;1.40;;;14.80;99.90;;;;;;4942242;29;20546;-70
2022/07/17 01:52:24;;;;;;;2.53;1.50;;;14.80;99.90;;;;;;4942750;29;20240;-68
2022/07/17 01:54:52;;;;;;;2.37;1.50;;;14.60;99.90;;;;;;4947713;28;20681;-69
2022/07/17 01:57:19;;;;;;;2.97;1.40;;;14.60;99.90;;;;;;4935037;29;20206;-70
2022/07/17 01:59:46;;;;;;;2.13;1.60;;;14.50;99.90;;;;;;4946195;28;20246;-70
2022/07/17 02:02:15;;;;;;;2.43;1.60;;;14.30;99.90;;;;;;4935657;28;20229;-68
2022/07/17 02:04:42;;;;;;;2.83;1.50;;;14.30;99.90;;;;;;4945816;28;20588;-69
2022/07/17 02:07:10;;;;;;;2.67;1.60;;;14.30;99.90;;;;;;4941609;28;20203;-69
2022/07/17 02:09:37;;;;;;;2.10;1.30;;;14.30;99.90;;;;;;4946970;29;20209;-68
2022/07/17 02:12:04;;;;;;;2.23;1.40;;;14.10;99.90;;;;;;4940399;29;20693;-69
2022/07/17 02:14:32;;;;;;;2.70;1.47;;;14.00;99.90;;;;;;4946033;29;20205;-69
2022/07/17 02:16:59;;;;;;;3.97;1.60;;;13.80;99.90;;;;;;4947309;28;20205;-68
2022/07/17 02:19:25;;;;;;;2.43;1.40;;;13.70;99.90;;;;;;4946010;28;20202;-67
2022/07/17 02:21:52;;;;;;;4.73;1.70;;;13.60;99.90;;;;;;4939563;28;20391;-68
2022/07/17 02:24:20;;;;;;;2.73;1.70;;;13.50;99.90;;;;;;4947871;29;20206;-67
2022/07/17 02:26:46;;;;;;;1.67;1.43;;;13.40;99.90;;;;;;4946396;29;20204;-66
2022/07/17 02:29:13;;;;;;;3.77;1.83;;;13.40;99.90;;;;;;4947785;28;20210;-66
2022/07/17 02:31:40;;;;;;;4.53;1.53;;;13.30;99.90;;;;;;4941619;29;20244;-68
2022/07/17 02:34:07;;;;;;;4.20;2.00;;;13.40;99.90;;;;;;4947106;28;21004;-68
2022/07/17 02:36:33;;;;;;;4.87;2.03;;;13.60;99.90;;;;;;4937224;28;20198;-67
2022/07/17 02:39:01;;;;;;;3.13;1.93;;;13.70;99.90;;;;;;4950131;28;20193;-68
2022/07/17 02:41:27;;;;;;;2.47;1.50;;;13.80;99.90;;;;;;4947722;28;20801;-67
2022/07/17 02:43:55;;;;;;;3.90;2.00;;;13.90;99.90;;;;;;4946746;28;20201;-68
2022/07/17 02:46:21;;;;;;;2.27;1.57;;;13.90;99.90;;;;;;4950222;28;20228;-68
2022/07/17 02:48:48;;;;;;;4.33;1.80;;;13.90;99.90;;;;;;4948000;28;20241;-68
2022/07/17 02:51:15;;;;;;;5.63;1.73;;;13.80;99.90;;;;;;4950855;29;20304;-68
2022/07/17 02:53:41;;;;;;;3.00;1.57;;;13.70;99.90;;;;;;4948103;28;20234;-66
2022/07/17 02:56:08;;;;;;;5.97;1.90;;;13.80;99.90;;;;;;4944115;29;20209;-68
2022/07/17 02:58:34;;;;;;;2.13;1.37;;;13.80;99.90;;;;;;4950869;29;20208;-68
2022/07/17 03:01:01;;;;;;;4.87;1.50;;;13.70;99.90;;;;;;4944697;28;20223;-70
2022/07/17 03:03:28;;;;;;;3.73;1.63;;;13.70;99.90;;;;;;4949483;28;20209;-68
2022/07/17 03:05:55;;;;;;;2.63;1.30;;;13.70;99.90;;;;;;4946603;28;20213;-70
2022/07/17 03:08:22;;;;;;;2.07;1.30;;;13.70;99.90;;;;;;4947520;28;20202;-71
2022/07/17 03:10:49;;;;;;;2.13;1.20;;;13.60;99.90;;;;;;4944322;28;20222;-69
2022/07/17 03:13:15;;;;;;;2.37;1.53;;;13.40;99.90;;;;;;4942993;29;20685;-69
2022/07/17 03:15:43;;;;;;;4.50;1.73;;;13.30;99.90;;;;;;4936868;29;20197;-73
2022/07/17 03:18:09;;;;;;;3.47;1.60;;;13.30;99.90;;;;;;4940973;28;20282;-68
2022/07/17 03:20:36;;;;;;;2.53;1.50;;;13.30;99.90;;;;;;4942302;28;20220;-69
2022/07/17 03:23:03;;;;;;;2.93;1.40;;;13.20;99.90;;;;;;4950553;28;20206;-69
2022/07/17 03:25:30;;;;;;;3.50;1.20;;;13.10;99.90;;;;;;4950158;28;20213;-69
2022/07/17 03:27:57;;;;;;;4.63;1.23;;;13.00;99.90;;;;;;4945863;29;20201;-70
2022/07/17 03:30:24;;;;;;;2.73;1.60;;;12.90;99.90;;;;;;4948111;28;20228;-71
2022/07/17 03:32:50;;;;;;;2.53;1.40;;;12.80;99.90;;;;;;4965052;28;20408;-68
2022/07/17 03:35:17;;;;;;;1.60;1.30;;;12.80;99.90;;;;;;4949332;29;20687;-71
2022/07/17 03:37:44;;;;;;;3.03;1.30;;;12.80;99.90;;;;;;4947269;28;20205;-72
2022/07/17 03:40:11;;;;;;;2.13;1.27;;;12.80;99.90;;;;;;4942285;29;20687;-69
2022/07/17 03:42:38;;;;;;;3.20;1.60;;;12.80;99.90;;;;;;4942506;28;20661;-69
2022/07/17 03:45:05;;;;;;;2.37;1.50;;;12.70;99.90;;;;;;4943037;28;20219;-69
2022/07/17 03:47:32;;;;;;;2.87;1.40;;;12.80;99.90;;;;;;4949544;28;20219;-70
2022/07/17 03:49:58;;;;;;;1.53;1.07;;;12.70;99.90;;;;;;4945299;28;20329;-70
2022/07/17 03:52:25;;;;;;;2.30;1.33;;;12.70;99.90;;;;;;4941724;29;20217;-68
2022/07/17 03:54:52;;;;;;;3.77;1.67;;;12.70;99.90;;;;;;4945061;29;20206;-68
2022/07/17 03:57:18;;;;;;;1.67;1.30;;;12.70;99.90;;;;;;4949963;28;20219;-69
2022/07/17 03:59:45;;;;;;;2.30;1.00;;;12.60;99.90;;;;;;4947528;28;20224;-68
2022/07/17 04:02:11;;;;;;;1.30;1.00;;;12.60;99.90;;;;;;4948340;28;20200;-73
2022/07/17 04:04:38;;;;;;;2.30;1.40;;;12.60;99.90;;;;;;4948809;28;20197;-71
2022/07/17 04:07:05;;;;;;;3.50;1.67;;;12.60;99.90;;;;;;4947997;29;20208;-69
2022/07/17 04:09:31;;;;;;;1.97;1.20;;;12.60;99.90;;;;;;4942621;29;20205;-69
2022/07/17 04:11:58;;;;;;;4.37;1.40;;;12.80;99.90;;;;;;4943364;28;20835;-70
2022/07/17 04:14:25;;;;;;;3.87;2.00;;;12.80;99.90;;;;;;4944783;29;20197;-70
2022/07/17 04:16:51;;;;;;;2.67;1.20;;;12.90;99.90;;;;;;4948026;28;20200;-68
2022/07/17 04:19:18;;;;;;;4.17;1.47;;;12.90;99.90;;;;;;4946670;29;20201;-73
2022/07/17 04:21:45;;;;;;;3.83;1.43;;;13.00;99.90;;;;;;4948694;28;20553;-68
2022/07/17 04:24:12;;;;;;;3.23;2.07;;;13.10;99.90;;;;;;4941177;29;20201;-71
2022/07/17 04:26:38;;;;;;;3.43;1.40;;;13.20;99.90;;;;;;4943419;29;20209;-68
2022/07/17 04:29:05;;;;;;;2.27;1.27;;;13.20;99.90;;;;;;4948095;28;20782;-69
2022/07/17 04:31:32;;;;;;;2.10;1.50;;;13.20;99.90;;;;;;4947455;29;20255;-66
2022/07/17 04:33:58;;;;;;;1.47;1.27;;;13.20;99.90;;;;;;4948524;28;20280;-68
2022/07/17 04:36:25;;;;;;;1.97;1.30;;;13.30;99.90;;;;;;4949036;28;20485;-68
2022/07/17 04:38:52;;;;;;;2.67;1.50;;;13.30;99.90;;;;;;4945216;29;20218;-68
2022/07/17 04:41:18;;;;;;;2.53;1.43;;;13.40;99.90;;;;;;4945336;28;20218;-67
2022/07/17 04:43:45;;;;;;;3.00;1.40;;;13.40;99.90;;;;;;4947781;29;20572;-66
2022/07/17 04:46:11;;;;;;;1.97;1.20;;;13.60;99.90;;;;;;4945930;28;20201;-66
2022/07/17 04:48:38;;;;;;;4.37;1.50;;;13.60;99.90;;;;;;4948367;29;20211;-68
2022/07/17 04:51:05;;;;;;;3.10;1.70;;;13.70;99.90;;;;;;4940927;28;20220;-67
2022/07/17 04:53:32;;;;;;;2.43;1.53;;;13.70;99.90;;;;;;4940363;28;20238;-67
2022/07/17 04:55:59;;;;;;;2.47;1.70;;;13.80;99.90;;;;;;4940296;28;20693;-66
2022/07/17 04:58:25;;;;;;;2.43;1.37;;;13.90;99.90;;;;;;4937032;28;20234;-72
2022/07/17 05:00:52;;;;;;;3.67;1.70;;;14.00;99.90;;;;;;4944817;28;20215;-70
2022/07/17 05:03:19;;;;;;;3.10;1.60;;;14.10;99.90;;;;;;4937739;28;20234;-68
2022/07/17 05:05:45;;;;;;;2.07;1.67;;;14.10;99.90;;;;;;4937590;29;20714;-70
2022/07/17 05:08:12;;;;;;;3.30;1.87;;;14.20;99.90;;;;;;4938202;29;20203;-68
2022/07/17 05:10:39;;;;;;;3.70;1.60;;;14.20;99.90;;;;;;4940099;28;20230;-69
2022/07/17 05:13:06;;;;;;;3.40;2.00;;;14.30;99.90;;;;;;4946584;29;20232;-69
2022/07/17 05:15:33;;;;;;;5.00;2.30;;;14.40;99.90;;;;;;4947288;28;20200;-69
2022/07/17 05:18:06;;;;;;;3.13;2.10;;;14.50;99.90;;;;;;4942480;29;20266;-69
2022/07/17 05:20:32;;;;;;;6.00;2.37;;;14.60;99.90;;;;;;4945278;28;20216;-71
2022/07/17 05:22:59;;;;;;;4.97;2.10;;;14.70;99.90;;;;;;4946864;28;20205;-69
2022/07/17 05:25:26;;;;;;;4.80;2.20;;;14.80;99.90;;;;;;4944580;28;20587;-69
2022/07/17 05:27:53;;;;;;;5.37;2.20;;;14.90;99.90;;;;;;4946567;28;20601;-71
2022/07/17 05:30:19;;;;;;;4.00;2.20;;;15.10;99.90;;;;;;4936680;28;20228;-67
2022/07/17 05:32:46;;;;;;;5.43;2.10;;;15.20;99.90;;;;;;4943830;29;20226;-67
2022/07/17 05:35:12;;;;;;;5.27;2.07;;;15.40;99.90;;;;;;4937462;28;20209;-67
2022/07/17 05:37:39;;;;;;;3.17;1.67;;;15.70;99.90;;;;;;4948475;28;20205;-72
2022/07/17 05:40:07;;;;;;;3.90;2.00;;;15.70;99.90;;;;;;4942338;28;20593;-65
2022/07/17 05:42:33;;;;;;;5.93;2.40;;;15.90;99.90;;;;;;4948204;29;20692;-66
2022/07/17 05:45:02;;;;;;;4.80;2.10;;;16.00;99.90;;;;;;4941228;28;20298;-66
2022/07/17 05:47:29;;;;;;;5.57;2.03;;;16.00;99.90;;;;;;4942213;29;20210;-66
2022/07/17 05:49:56;;;;;;;5.13;2.10;;;16.20;99.90;;;;;;4944740;28;20233;-66
2022/07/17 05:52:23;;;;;;;6.47;2.37;;;16.40;99.90;;;;;;4941696;29;20202;-66
2022/07/17 05:54:49;;;;;;;4.67;2.20;;;16.70;99.90;;;;;;4946540;28;20230;-66
2022/07/17 05:57:16;;;;;;;5.13;2.10;;;17.00;99.90;;;;;;4944080;29;20685;-67
2022/07/17 05:59:43;;;;;;;7.83;2.20;;;17.50;99.90;;;;;;4939535;28;20307;-66
2022/07/17 06:02:10;;;;;;;5.53;1.90;;;17.90;99.90;;;;;;4946321;29;20221;-66
2022/07/17 06:04:37;;;;;;;5.43;2.00;;;18.00;99.90;;;;;;4940291;28;20203;-66
2022/07/17 06:07:04;;;;;;;6.37;1.90;;;18.10;99.90;;;;;;4944675;28;20265;-65
2022/07/17 06:09:32;;;;;;;5.63;1.80;;;18.00;99.90;;;;;;4939306;29;20221;-66
2022/07/17 06:11:58;;;;;;;6.10;1.83;;;17.90;99.90;;;;;;4945855;28;20198;-66
2022/07/17 06:14:25;;;;;;;3.80;1.77;;;17.90;99.90;;;;;;4943750;28;20218;-66
2022/07/17 06:16:51;;;;;;;6.03;1.93;;;17.80;99.90;;;;;;4948104;28;20218;-66
2022/07/17 06:19:18;;;;;;;3.33;1.93;;;17.80;99.90;;;;;;4946154;28;20239;-66
2022/07/17 06:21:45;;;;;;;6.53;2.10;;;17.70;99.90;;;;;;4947266;28;20209;-66
2022/07/17 06:24:11;;;;;;;5.13;1.63;;;17.70;99.90;;;;;;4947832;29;20206;-66
2022/07/17 06:26:38;;;;;;;3.37;1.57;;;17.90;99.90;;;;;;4943627;29;20218;-66
2022/07/17 06:29:05;;;;;;;3.00;1.60;;;18.10;99.90;;;;;;4945021;29;20570;-66
2022/07/17 06:31:32;;;;;;;3.67;1.47;;;18.30;99.90;;;;;;4949571;28;20752;-66
2022/07/17 06:33:59;;;;;;;2.50;1.50;;;18.30;99.90;;;;;;4947614;28;20249;-66
2022/07/17 06:36:25;;;;;;;3.73;1.77;;;18.50;99.90;;;;;;4945646;29;20641;-66
2022/07/17 06:38:52;;;;;;;2.70;1.40;;;18.80;99.90;;;;;;4944976;28;20218;-66
2022/07/17 06:41:19;;;;;;;2.27;1.40;;;18.80;99.90;;;;;;4946471;29;20233;-66
2022/07/17 06:43:45;;;;;;;5.23;1.50;;;18.80;99.90;;;;;;4948895;29;20202;-67
2022/07/17 06:46:12;;;;;;;3.37;1.40;;;18.80;99.90;;;;;;4944614;28;20206;-68
2022/07/17 06:48:39;;;;;;;4.27;1.30;;;18.90;99.90;;;;;;4949368;28;20733;-69
2022/07/17 06:51:05;;;;;;;3.00;1.00;;;19.00;99.90;;;;;;4942901;28;20229;-68
2022/07/17 06:53:32;;;;;;;3.60;0.93;;;19.20;99.90;;;;;;4948408;29;20226;-67
2022/07/17 06:55:59;;;;;;;2.43;1.10;;;19.40;99.90;;;;;;4944182;28;20202;-69
2022/07/17 06:58:25;;;;;;;5.63;1.50;;;19.70;99.90;;;;;;4949165;29;20221;-70
2022/07/17 07:00:52;;;;;;;3.83;1.17;;;19.80;99.90;;;;;;4945629;28;20215;-68
2022/07/17 07:03:19;;;;;;;4.90;1.10;;;20.10;99.90;;;;;;4945932;28;20203;-68
2022/07/17 07:05:46;;;;;;;1.50;0.80;;;20.60;99.90;;;;;;4945466;29;20209;-68
2022/07/17 07:08:12;;;;;;;2.57;0.90;;;21.10;99.90;;;;;;4947198;28;20213;-68
2022/07/17 07:10:39;;;;;;;3.47;1.30;;;21.80;99.90;;;;;;4947146;28;20708;-68
2022/07/17 07:13:05;;;;;;;2.72;1.10;;;22.80;99.90;;;;;;4948206;28;20596;-67
2022/07/17 07:15:32;;;;;;;2.00;1.00;;;23.90;99.90;;;;;;4948756;28;20277;-71
2022/07/17 07:17:59;;;;;;;1.92;0.90;;;24.80;99.90;;;;;;4948737;29;20195;-67
2022/07/17 07:20:26;;;;;;;1.75;0.82;;;25.30;99.90;;;;;;4945119;28;20217;-68
2022/07/17 07:22:53;;;;;;;4.70;1.05;;;25.80;99.90;;;;;;4945749;29;20195;-68
2022/07/17 07:25:22;;;;;;;1.60;1.02;;;26.20;99.50;;;;;;4938758;29;20230;-68
2022/07/17 07:27:49;;;;;;;2.40;0.93;;;25.90;98.60;;;;;;4948388;28;20202;-66
2022/07/17 07:30:16;;;;;;;5.07;1.38;;;25.90;98.80;;;;;;4941451;28;20227;-66
2022/07/17 07:32:43;;;;;;;3.00;1.00;;;26.10;98.30;;;;;;4942363;29;20194;-66
2022/07/17 07:35:10;;;;;;;2.35;0.80;;;25.80;98.40;;;;;;4946489;29;20222;-66
2022/07/17 07:37:37;;;;;;;1.35;0.82;;;25.80;98.80;;;;;;4946421;28;20191;-68
2022/07/17 07:40:05;;;;;;;2.63;0.93;;;26.00;98.30;;;;;;4950024;28;20221;-68
2022/07/17 07:42:31;;;;;;;1.83;0.98;;;25.90;97.80;;;;;;4946624;29;20725;-68
2022/07/17 07:44:59;;;;;;;4.00;1.23;;;25.90;98.10;;;;;;4943962;28;20586;-65
2022/07/17 07:47:25;;;;;;;1.38;0.93;;;25.90;97.50;;;;;;4943595;29;20672;-65
2022/07/17 07:49:52;;;;;;;3.20;0.90;;;26.20;96.60;;;;;;4941644;28;20561;-68
2022/07/17 07:52:19;;;;;;;3.05;1.00;;;26.30;96.20;;;;;;4936857;29;20225;-68
2022/07/17 07:54:45;;;;;;;2.00;0.80;;;26.20;95.90;;;;;;4946032;28;20214;-69
2022/07/17 07:57:12;;;;;;;3.25;0.93;;;25.90;95.80;;;;;;4942309;28;20209;-68
2022/07/17 07:59:39;;;;;;;4.75;1.30;;;25.60;95.80;;;;;;4944704;28;20226;-69
2022/07/17 08:02:06;;;;;;;2.50;1.02;;;25.70;96.50;;;;;;4950331;28;20653;-68
2022/07/17 08:04:33;;;;;;;3.13;0.90;;;26.00;96.40;;;;;;4946144;29;20705;-70
2022/07/17 08:06:59;;;;;;;1.85;1.05;;;25.90;95.40;;;;;;4949256;28;20203;-69
2022/07/17 08:09:26;;;;;;;2.60;1.02;;;25.70;95.40;;;;;;4943337;29;20222;-68
2022/07/17 08:11:53;;;;;;;5.03;1.23;;;25.20;95.50;;;;;;4950229;29;20271;-69
2022/07/17 08:14:20;;;;;;;4.85;1.48;;;24.90;96.00;;;;;;4941625;28;20222;-68
2022/07/17 08:16:46;;;;;;;2.10;0.90;;;25.00;96.40;;;;;;4947490;28;20199;-69
2022/07/17 08:19:13;;;;;;;1.40;0.82;;;24.90;96.00;;;;;;4946010;28;20200;-69
2022/07/17 08:21:40;;;;;;;1.77;1.00;;;24.70;96.60;;;;;;4945968;28;20222;-69
2022/07/17 08:24:07;;;;;;;1.77;0.70;;;24.70;96.50;;;;;;4944623;28;20543;-66
2022/07/17 08:26:33;;;;;;;2.20;1.08;;;24.40;96.70;;;;;;4950552;28;20572;-66
2022/07/17 08:29:00;;;;;;;2.10;0.95;;;24.40;97.20;;;;;;4950177;28;20281;-66
2022/07/17 08:31:27;;;;;;;2.10;0.73;;;24.60;97.10;;;;;;4942665;28;20229;-66
2022/07/17 08:33:54;;;;;;;2.67;0.88;;;24.80;96.50;;;;;;4948564;28;20218;-66
2022/07/17 08:36:21;;;;;;;1.52;0.82;;;24.50;96.70;;;;;;4946318;28;20217;-66
2022/07/17 08:38:48;;;;;;;2.88;1.10;;;24.50;96.80;;;;;;4941547;28;20205;-66
2022/07/17 08:41:16;;;;;;;2.60;1.08;;;24.70;97.00;;;;;;4943591;28;20238;-66
2022/07/17 08:43:44;;;;;;;3.53;0.90;;;24.70;96.50;;;;;;4941240;29;20195;-66
2022/07/17 08:46:11;;;;;;;2.83;1.00;;;24.80;96.20;;;;;;4945833;28;20669;-66
2022/07/17 08:48:44;;;;;;;1.45;0.80;;;24.70;96.80;;;;;;4946444;28;20250;-66
2022/07/17 08:51:11;;;;;;;1.23;0.93;;;24.60;96.20;;;;;;4939387;28;20227;-66
2022/07/17 08:53:39;;;;;;;2.83;1.33;;;24.80;96.50;;;;;;4950199;29;20301;-66
2022/07/17 08:56:06;;;;;;;1.73;1.10;;;24.70;95.40;;;;;;4947211;28;20549;-66
2022/07/17 08:58:33;;;;;;;2.63;1.00;;;24.70;95.80;;;;;;4949270;28;20250;-66
2022/07/17 09:01:00;;;;;;;2.70;0.90;;;24.90;95.40;;;;;;4947302;28;20627;-66
2022/07/17 09:03:26;;;;;;;2.25;1.08;;;25.00;95.20;;;;;;4949537;29;20202;-66
2022/07/17 09:05:54;;;;;;;2.30;0.90;;;25.10;95.30;;;;;;4941959;28;20547;-66
2022/07/17 09:08:23;;;;;;;4.25;0.90;;;25.40;95.30;;;;;;4946286;28;20683;-66
2022/07/17 09:10:52;;;;;;;2.30;1.20;;;25.50;94.80;;;;;;4950712;28;20691;-66
2022/07/17 09:13:30;;;;;;;1.52;0.90;;;25.60;94.40;;;;;;4944705;28;20203;-66
2022/07/17 09:16:05;;;;;;;3.30;1.13;;;25.70;94.20;;;;;;4947579;28;20209;-66
2022/07/17 09:18:43;;;;;;;2.08;1.13;;;25.80;93.70;;;;;;4939786;28;20876;-66
2022/07/17 09:21:16;;;;;;;2.65;1.20;;;25.50;94.00;;;;;;4942280;28;20218;-66
2022/07/17 09:23:43;;;;;;;1.35;0.90;;;25.50;93.80;;;;;;4946753;28;20202;-66
2022/07/17 09:26:10;;;;;;;3.38;1.08;;;25.70;94.40;;;;;;4948298;28;20205;-66
2022/07/17 09:28:46;;;;;;;3.70;1.10;;;25.90;93.60;;;;;;4947363;28;20423;-66
2022/07/17 09:31:27;;;;;;;4.43;0.90;;;25.60;93.60;;;;;;4940576;28;20221;-66
2022/07/17 09:33:55;;;;;;;1.27;0.90;;;25.30;93.70;;;;;;4942376;29;20309;-66
2022/07/17 09:36:22;;;;;;;2.65;1.17;;;25.40;93.50;;;;;;4939441;29;20577;-68
2022/07/17 09:38:52;;;;;;;1.98;0.90;;;25.20;93.90;;;;;;4941917;28;20269;-68
2022/07/17 09:41:21;;;;;;;3.38;0.85;;;25.20;93.90;;;;;;4944909;28;20755;-66
2022/07/17 09:43:50;;;;;;;2.35;0.90;;;25.10;93.30;;;;;;4942288;29;20195;-66
2022/07/17 09:46:22;;;;;;;2.35;0.95;;;25.00;93.20;;;;;;4942969;29;20316;-66
2022/07/17 09:49:01;;;;;;;2.88;1.02;;;25.20;93.30;;;;;;4948597;28;20293;-66
2022/07/17 09:51:34;;;;;;;1.25;0.98;;;25.50;93.60;;;;;;4955402;28;20232;-66
2022/07/17 09:54:04;;;;;;;1.17;0.88;;;25.80;93.60;;;;;;4954112;28;20214;-66
2022/07/17 09:56:33;;;;;;;3.13;1.10;;;26.10;92.90;;;;;;4954384;29;20707;-66
2022/07/17 09:59:04;;;;;;;2.83;0.90;;;26.20;92.80;;;;;;4951747;28;20194;-66
2022/07/17 10:01:32;;;;;;;3.92;1.13;;;26.40;92.60;;;;;;4947591;28;20213;-66
2022/07/17 10:03:59;;;;;;;1.95;1.00;;;26.60;92.20;;;;;;4947526;28;20206;-66
2022/07/17 10:06:27;;;;;;;2.53;1.10;;;26.60;91.60;;;;;;4949079;28;20225;-66
2022/07/17 10:08:55;;;;;;;1.70;1.10;;;26.40;92.00;;;;;;4945458;28;20384;-65
2022/07/17 10:11:24;;;;;;;2.08;0.85;;;26.40;92.40;;;;;;4946129;29;20253;-66
2022/07/17 10:13:53;;;;;;;0.98;0.82;;;26.50;91.50;;;;;;4946484;29;20568;-66
2022/07/17 10:16:31;;;;;;;1.65;1.00;;;26.70;92.10;;;;;;4949492;28;20270;-66
2022/07/17 10:19:02;;;;;;;4.55;0.80;;;27.00;91.30;;;;;;4948338;28;20253;-66
2022/07/17 10:21:30;;;;;;;3.08;1.10;;;27.30;89.70;;;;;;4949207;28;20241;-69
2022/07/17 10:23:58;;;;;;;2.20;0.82;;;27.10;89.70;;;;;;4948207;29;20551;-69
2022/07/17 10:26:43;;;;;;;2.05;1.00;;;26.80;90.40;;;;;;4950436;28;20201;-66
2022/07/17 10:29:35;;;;;;;1.50;0.85;;;26.90;90.30;;;;;;4953064;28;20202;-66
2022/07/17 10:32:15;;;;;;;3.17;1.50;;;26.90;88.70;;;;;;4950404;29;20222;-66
2022/07/17 10:34:53;;;;;;;2.55;0.95;;;26.90;89.70;;;;;;4947622;28;20233;-65
2022/07/17 10:37:24;;;;;;;4.05;1.40;;;27.10;88.90;;;;;;4953039;28;20286;-65
2022/07/17 10:40:18;;;;;;;2.00;1.02;;;27.20;90.00;;;;;;4948328;28;20214;-70
2022/07/17 10:43:08;;;;;;;2.60;1.00;;;27.40;89.10;;;;;;4938007;28;20218;-71
2022/07/17 10:45:43;;;;;;;2.13;0.88;;;27.00;89.40;;;;;;4943377;28;20293;-68
2022/07/17 10:48:13;;;;;;;3.03;1.00;;;27.00;89.60;;;;;;4947814;28;20198;-69
2022/07/17 10:50:55;;;;;;;3.45;0.88;;;27.20;90.50;;;;;;4945057;28;20241;-70
2022/07/17 10:53:33;;;;;;;2.85;0.93;;;27.30;90.20;;;;;;4937793;29;20216;-70
2022/07/17 10:56:04;;;;;;;1.60;1.00;;;27.40;90.60;;;;;;4946651;28;20625;-69
2022/07/17 10:58:39;;;;;;;2.70;1.00;;;27.30;88.00;;;;;;4942018;28;20198;-69
2022/07/17 11:01:18;;;;;;;3.00;0.90;;;27.20;88.20;;;;;;4937160;28;20228;-70
2022/07/17 11:03:50;;;;;;;2.83;0.98;;;27.20;88.80;;;;;;4940278;29;20289;-70
2022/07/17 11:06:23;;;;;;;1.23;0.88;;;27.00;88.20;;;;;;4934990;29;20677;-67
2022/07/17 11:09:16;;;;;;;2.25;0.90;;;27.00;89.50;;;;;;4943043;28;20214;-69
2022/07/17 11:11:45;;;;;;;3.63;0.90;;;27.20;89.10;;;;;;4942754;28;20750;-68
2022/07/17 11:14:21;;;;;;;2.25;1.00;;;27.60;88.70;;;;;;4943564;28;20241;-68
2022/07/17 11:16:52;;;;;;;2.45;0.93;;;27.90;88.20;;;;;;4936001;29;20202;-66
2022/07/17 11:19:28;;;;;;;1.15;0.93;;;28.10;88.70;;;;;;4940019;29;20285;-65
2022/07/17 11:21:57;;;;;;;6.47;1.00;;;28.40;86.90;;;;;;4935505;29;20198;-65
2022/07/17 11:24:26;;;;;;;1.25;0.82;;;28.50;86.80;;;;;;4941326;28;20653;-65
2022/07/17 11:26:52;;;;;;;2.25;1.00;;;28.60;84.10;;;;;;4941266;28;20570;-66
2022/07/17 11:29:20;;;;;;;1.30;0.98;;;28.80;82.90;;;;;;4941758;29;20210;-66
2022/07/17 11:31:46;;;;;;;2.47;1.02;;;28.80;82.50;;;;;;4946561;29;20218;-66
2022/07/17 11:34:13;;;;;;;2.00;1.00;;;28.90;83.00;;;;;;4951599;28;20204;-67
2022/07/17 11:36:42;;;;;;;2.85;1.17;;;29.10;84.20;;;;;;4947678;28;20303;-66
2022/07/17 11:39:14;;;;;;;2.05;1.20;;;29.10;84.30;;;;;;4944408;29;20195;-66
2022/07/17 11:41:45;;;;;;;1.67;1.10;;;29.10;83.50;;;;;;4932405;29;20221;-66
2022/07/17 11:44:14;;;;;;;4.75;1.00;;;29.20;83.90;;;;;;4939854;29;20674;-66
2022/07/17 11:46:45;;;;;;;1.80;1.30;;;29.00;84.30;;;;;;4937901;28;20202;-66
2022/07/17 11:49:25;;;;;;;3.95;1.10;;;29.00;85.80;;;;;;4935430;28;20202;-66
2022/07/17 11:51:54;;;;;;;3.25;1.02;;;29.10;84.50;;;;;;4937019;29;20198;-66
2022/07/17 11:54:21;;;;;;;2.90;1.02;;;29.20;83.70;;;;;;4934991;28;20231;-66
2022/07/17 11:57:01;;;;;;;0.82;0.80;;;29.30;83.30;;;;;;4941146;28;20201;-69
2022/07/17 11:59:31;;;;;;;4.80;1.20;;;29.50;83.60;;;;;;4941760;29;20198;-68
2022/07/17 12:02:17;;;;;;;1.92;1.08;;;29.40;84.20;;;;;;4942120;28;20201;-68
2022/07/17 12:04:58;;;;;;;3.53;0.90;;;29.50;85.20;;;;;;4942855;28;20302;-71
2022/07/17 12:07:38;;;;;;;2.50;1.00;;;29.40;83.90;;;;;;4942480;28;20203;-68
2022/07/17 12:10:18;;;;;;;3.75;1.20;;;29.50;85.90;;;;;;4937842;28;20667;-69
2022/07/17 12:12:56;;;;;;;2.35;1.20;;;29.60;84.30;;;;;;4937181;29;20692;-69
2022/07/17 12:15:36;;;;;;;4.43;1.00;;;29.70;82.90;;;;;;4943609;28;20647;-69
2022/07/17 12:18:04;;;;;;;2.22;1.20;;;29.70;82.40;;;;;;4939003;29;20194;-69
2022/07/17 12:20:45;;;;;;;2.90;1.20;;;29.70;82.50;;;;;;4943617;28;20587;-70
2022/07/17 12:23:55;;;;;;;1.15;0.90;;;29.70;83.40;;;;;;4937807;28;20233;-68
2022/07/17 12:26:21;;;;;;;2.33;1.02;;;29.70;82.60;;;;;;4923266;29;20233;-68
2022/07/17 12:28:48;;;;;;;1.90;1.10;;;29.80;84.10;;;;;;4943324;28;20208;-68
2022/07/17 12:31:15;;;;;;;2.35;1.15;;;29.90;83.70;;;;;;4938301;28;20226;-71
2022/07/17 12:33:43;;;;;;;3.30;1.30;;;30.00;84.00;;;;;;4944956;28;20569;-69
2022/07/17 12:36:10;;;;;;;2.28;0.90;;;29.90;84.30;;;;;;4943537;28;20223;-69
2022/07/17 12:38:37;;;;;;;3.45;1.00;;;30.00;83.70;;;;;;4949383;29;20684;-70
2022/07/17 12:41:04;;;;;;;3.53;1.05;;;29.90;82.90;;;;;;4941283;28;20218;-69
2022/07/17 12:43:31;;;;;;;2.30;1.08;;;29.80;83.20;;;;;;4947847;28;20213;-70
2022/07/17 12:45:58;;;;;;;6.70;1.20;;;29.80;83.80;;;;;;4945996;29;20194;-70
2022/07/17 12:48:35;;;;;;;2.53;1.10;;;29.70;82.90;;;;;;4946064;28;20216;-69
2022/07/17 12:51:03;;;;;;;2.75;1.08;;;29.70;85.60;;;;;;4943279;28;20265;-72
2022/07/17 12:53:30;;;;;;;1.65;1.17;;;29.80;83.90;;;;;;4937431;28;20259;-67
2022/07/17 12:55:56;;;;;;;4.05;1.20;;;29.90;84.30;;;;;;4944515;29;20229;-66